Time;durP1;ratioP1;P1;durP2;ratioP2;P2;SDS_P1;SDS_P2;PMS_P1;PMS_P2;Temp;Humidity;BMP_temperature;BMP_pressure;BME280_temperature;BME280_humidity;BME280_pressure;Samples;Min_cycle;Max_cycle;Signal;HPM_P1;HPM_P2
2022/02/13 00:00:27;;;;;;;14.60;6.87;;;8.60;1.00;;;;;;5093297;28;20251;-84
2022/02/13 00:02:54;;;;;;;11.03;6.07;;;8.60;1.00;;;;;;5093155;28;20726;-88
2022/02/13 00:05:21;;;;;;;11.03;7.90;;;8.60;1.00;;;;;;5092945;28;20198;-88
2022/02/13 00:07:49;;;;;;;8.33;6.70;;;8.50;1.00;;;;;;5092964;28;20349;-85
2022/02/13 00:10:17;;;;;;;12.37;6.63;;;8.60;1.00;;;;;;5092800;28;20274;-91
2022/02/13 00:12:44;;;;;;;10.90;5.97;;;8.70;1.00;;;;;;5092471;28;20208;-79
2022/02/13 00:15:11;;;;;;;7.60;6.63;;;8.70;1.00;;;;;;5091732;28;20251;-81
2022/02/13 00:17:38;;;;;;;11.23;7.83;;;8.70;1.00;;;;;;5092391;28;20209;-81
2022/02/13 00:20:06;;;;;;;10.40;6.20;;;8.70;1.00;;;;;;5091724;28;20641;-81
2022/02/13 00:22:33;;;;;;;10.57;6.57;;;8.70;1.00;;;;;;5091958;28;20266;-80
2022/02/13 00:25:03;;;;;;;10.63;7.07;;;8.60;1.00;;;;;;5092294;28;20282;-80
2022/02/13 00:27:30;;;;;;;12.87;7.27;;;8.60;1.00;;;;;;5091661;28;20201;-80
2022/02/13 00:29:57;;;;;;;12.67;7.47;;;8.60;1.00;;;;;;5091991;28;20715;-80
2022/02/13 00:32:27;;;;;;;14.60;7.37;;;8.60;1.00;;;;;;5092042;28;20661;-80
2022/02/13 00:34:54;;;;;;;20.13;8.83;;;8.60;1.00;;;;;;5092052;28;20206;-79
2022/02/13 00:37:21;;;;;;;17.20;6.87;;;8.60;1.00;;;;;;5091599;28;20201;-83
2022/02/13 00:39:48;;;;;;;10.00;7.13;;;8.60;1.00;;;;;;5092820;28;20208;-84
2022/02/13 00:42:17;;;;;;;12.83;7.57;;;8.50;1.00;;;;;;5091496;28;20621;-81
2022/02/13 00:44:44;;;;;;;9.40;6.33;;;8.40;1.00;;;;;;5091825;28;20205;-81
2022/02/13 00:47:12;;;;;;;8.00;6.43;;;8.40;1.00;;;;;;5091476;28;20256;-80
2022/02/13 00:49:39;;;;;;;11.87;7.00;;;8.40;1.00;;;;;;5091667;28;20245;-80
2022/02/13 00:52:06;;;;;;;8.67;5.83;;;8.40;1.00;;;;;;5090950;28;20241;-81
2022/02/13 00:54:34;;;;;;;9.87;6.77;;;8.20;1.00;;;;;;5091324;28;20640;-81
2022/02/13 00:57:01;;;;;;;9.17;6.60;;;8.20;1.00;;;;;;5091211;28;20295;-80
2022/02/13 00:59:29;;;;;;;9.07;5.60;;;8.40;1.00;;;;;;5091909;28;20201;-89
2022/02/13 01:01:56;;;;;;;11.03;6.60;;;8.30;1.00;;;;;;5092339;28;20274;-84
2022/02/13 01:04:23;;;;;;;15.47;7.17;;;8.30;1.00;;;;;;5091848;28;20209;-85
2022/02/13 01:06:51;;;;;;;12.27;7.17;;;8.20;1.00;;;;;;5092171;28;20254;-85
2022/02/13 01:09:18;;;;;;;10.80;6.37;;;8.40;1.00;;;;;;5091854;28;20201;-88
2022/02/13 01:11:45;;;;;;;13.93;7.07;;;8.30;1.00;;;;;;5091453;28;20283;-83
2022/02/13 01:14:12;;;;;;;13.77;6.40;;;8.40;1.00;;;;;;5091580;28;20250;-83
2022/02/13 01:16:41;;;;;;;9.40;6.97;;;8.50;1.00;;;;;;5091592;28;20198;-84
2022/02/13 01:19:08;;;;;;;8.67;7.03;;;8.60;1.00;;;;;;5090940;28;20205;-84
2022/02/13 01:21:35;;;;;;;9.50;6.37;;;8.60;1.00;;;;;;5091396;28;20206;-79
2022/02/13 01:24:02;;;;;;;13.90;6.43;;;8.60;1.00;;;;;;5091062;28;20197;-83
2022/02/13 01:26:29;;;;;;;8.17;5.37;;;8.60;1.00;;;;;;5091476;28;20263;-83
2022/02/13 01:28:56;;;;;;;14.47;7.43;;;8.60;1.00;;;;;;5092044;28;20627;-84
2022/02/13 01:31:24;;;;;;;7.70;5.80;;;8.70;1.00;;;;;;5091723;28;20680;-82
2022/02/13 01:33:52;;;;;;;11.63;6.97;;;8.80;1.00;;;;;;5091586;28;20205;-82
2022/02/13 01:36:19;;;;;;;11.80;6.23;;;8.80;1.00;;;;;;5091203;28;20620;-82
2022/02/13 01:38:47;;;;;;;12.87;7.37;;;8.80;1.00;;;;;;5091116;28;20242;-83
2022/02/13 01:41:14;;;;;;;11.90;7.47;;;8.80;1.00;;;;;;5089544;28;20201;-77
2022/02/13 01:43:41;;;;;;;9.30;5.23;;;8.80;1.00;;;;;;5090903;28;20205;-86
2022/02/13 01:46:09;;;;;;;10.60;6.40;;;8.80;1.00;;;;;;5090591;28;20205;-80
2022/02/13 01:48:36;;;;;;;11.53;6.23;;;8.80;1.00;;;;;;5090914;28;20202;-78
2022/02/13 01:51:05;;;;;;;7.57;5.70;;;8.70;1.00;;;;;;5095383;28;20254;-79
2022/02/13 01:53:33;;;;;;;13.17;6.07;;;8.80;1.00;;;;;;5110762;28;20321;-79
2022/02/13 01:56:00;;;;;;;10.90;6.53;;;8.60;1.00;;;;;;5110342;28;20250;-79
2022/02/13 01:58:28;;;;;;;11.57;6.93;;;8.70;1.00;;;;;;5109815;28;20668;-84
2022/02/13 02:00:56;;;;;;;12.37;7.13;;;8.60;1.00;;;;;;5112133;28;20208;-84
2022/02/13 02:03:23;;;;;;;11.77;6.43;;;8.50;1.00;;;;;;5111665;28;20691;-85
2022/02/13 02:05:50;;;;;;;19.43;7.87;;;8.60;1.00;;;;;;5112092;28;20201;-88
2022/02/13 02:08:19;;;;;;;16.37;8.40;;;8.50;1.00;;;;;;5112081;28;20254;-88
2022/02/13 02:10:49;;;;;;;7.97;5.70;;;8.50;1.00;;;;;;5110020;28;20268;-82
2022/02/13 02:13:16;;;;;;;9.00;6.83;;;8.50;1.00;;;;;;5110766;28;20197;-85
2022/02/13 02:15:43;;;;;;;11.07;6.87;;;8.50;1.00;;;;;;5111675;28;20205;-89
2022/02/13 02:18:10;;;;;;;10.00;7.20;;;8.50;1.00;;;;;;5110524;28;20197;-79
2022/02/13 02:20:37;;;;;;;8.17;6.10;;;8.50;1.00;;;;;;5092473;28;20279;-77
2022/02/13 02:23:06;;;;;;;9.23;7.03;;;8.40;1.00;;;;;;5089929;28;20338;-78
2022/02/13 02:25:33;;;;;;;11.20;6.80;;;8.40;1.00;;;;;;5090381;28;20247;-77
2022/02/13 02:28:00;;;;;;;11.00;6.30;;;8.40;1.00;;;;;;5090023;28;20251;-75
2022/02/13 02:30:27;;;;;;;8.40;6.43;;;8.20;1.00;;;;;;5091115;28;20293;-77
2022/02/13 02:32:54;;;;;;;9.17;6.67;;;8.10;1.00;;;;;;5094021;28;20201;-77
2022/02/13 02:35:21;;;;;;;12.53;6.77;;;8.30;1.00;;;;;;5093519;28;20235;-76
2022/02/13 02:37:48;;;;;;;11.80;7.33;;;8.40;1.00;;;;;;5093622;28;20201;-77
2022/02/13 02:40:18;;;;;;;17.40;6.67;;;8.30;1.00;;;;;;5093299;28;20213;-78
2022/02/13 02:42:47;;;;;;;8.57;6.23;;;8.20;1.00;;;;;;5093766;28;20213;-77
2022/02/13 02:45:14;;;;;;;13.30;6.83;;;8.20;1.00;;;;;;5093402;28;20565;-76
2022/02/13 02:47:42;;;;;;;12.77;6.93;;;8.10;1.00;;;;;;5093912;28;20209;-76
2022/02/13 02:50:11;;;;;;;8.60;6.73;;;8.00;1.00;;;;;;5093490;28;20300;-77
2022/02/13 02:52:38;;;;;;;12.47;7.50;;;8.00;1.00;;;;;;5093187;28;20229;-75
2022/02/13 02:55:06;;;;;;;11.27;7.33;;;8.20;1.00;;;;;;5092905;28;20209;-76
2022/02/13 02:57:34;;;;;;;12.17;6.30;;;8.10;1.00;;;;;;5093472;28;20274;-76
2022/02/13 03:00:02;;;;;;;17.00;7.80;;;8.10;1.00;;;;;;5093318;28;20206;-77
2022/02/13 03:02:29;;;;;;;14.77;6.93;;;8.20;1.00;;;;;;5093598;28;20209;-77
2022/02/13 03:04:56;;;;;;;15.83;6.90;;;8.20;1.00;;;;;;5093463;28;20250;-76
2022/02/13 03:07:23;;;;;;;13.37;7.30;;;8.00;1.00;;;;;;5092682;28;20611;-76
2022/02/13 03:09:50;;;;;;;12.17;7.17;;;8.10;1.00;;;;;;5093081;28;20741;-78
2022/02/13 03:12:17;;;;;;;11.83;5.87;;;8.30;1.00;;;;;;5092537;28;20225;-76
2022/02/13 03:14:45;;;;;;;10.73;7.33;;;8.30;1.00;;;;;;5093086;28;20205;-77
2022/02/13 03:17:12;;;;;;;12.10;6.40;;;8.20;1.00;;;;;;5092801;28;20201;-77
2022/02/13 03:19:39;;;;;;;10.53;6.87;;;8.30;1.00;;;;;;5093241;28;20201;-78
2022/02/13 03:22:07;;;;;;;12.90;7.80;;;8.50;1.00;;;;;;5092418;28;20278;-78
2022/02/13 03:24:34;;;;;;;9.17;6.63;;;8.40;1.00;;;;;;5092807;28;20569;-78
2022/02/13 03:27:01;;;;;;;11.67;7.23;;;8.30;1.00;;;;;;5092870;28;20255;-78
2022/02/13 03:29:29;;;;;;;10.40;6.63;;;8.10;1.00;;;;;;5093374;28;20266;-78
2022/02/13 03:31:57;;;;;;;13.67;7.47;;;8.10;1.00;;;;;;5093114;28;20237;-80
2022/02/13 03:34:24;;;;;;;14.90;6.37;;;8.20;1.00;;;;;;5092544;28;20205;-79
2022/02/13 03:36:51;;;;;;;12.93;7.50;;;8.30;1.00;;;;;;5092690;28;20243;-80
2022/02/13 03:39:20;;;;;;;11.87;7.03;;;8.40;1.00;;;;;;5092466;28;20201;-82
2022/02/13 03:41:47;;;;;;;12.13;7.47;;;8.30;1.00;;;;;;5092755;28;20699;-84
2022/02/13 03:44:14;;;;;;;15.43;7.07;;;8.30;1.00;;;;;;5093379;28;20198;-83
2022/02/13 03:46:41;;;;;;;12.37;7.07;;;8.40;1.00;;;;;;5093849;28;20259;-83
2022/02/13 03:49:09;;;;;;;11.93;7.57;;;8.30;1.00;;;;;;5092320;28;20255;-73
2022/02/13 03:51:36;;;;;;;17.83;8.13;;;8.40;1.00;;;;;;5092014;28;20237;-72
2022/02/13 03:54:03;;;;;;;13.03;7.67;;;8.40;1.00;;;;;;5091685;28;20209;-74
2022/02/13 03:56:30;;;;;;;18.97;7.97;;;8.50;1.00;;;;;;5092446;28;20256;-73
2022/02/13 03:58:57;;;;;;;12.80;6.80;;;8.50;1.00;;;;;;5092707;28;20285;-73
2022/02/13 04:01:24;;;;;;;14.80;6.60;;;8.60;1.00;;;;;;5092208;28;20259;-74
2022/02/13 04:03:51;;;;;;;10.13;6.73;;;8.60;1.00;;;;;;5091960;28;20201;-73
2022/02/13 04:06:19;;;;;;;11.17;6.47;;;8.70;1.00;;;;;;5091463;28;20231;-73
2022/02/13 04:08:46;;;;;;;15.43;7.93;;;8.70;1.00;;;;;;5091828;28;20264;-73
2022/02/13 04:11:13;;;;;;;16.57;8.07;;;8.70;1.00;;;;;;5089755;28;20286;-73
2022/02/13 04:13:41;;;;;;;14.57;9.20;;;8.70;1.00;;;;;;5105928;28;20554;-77
2022/02/13 04:16:09;;;;;;;10.90;6.40;;;8.70;1.00;;;;;;5106861;28;20288;-74
2022/02/13 04:18:36;;;;;;;13.37;7.57;;;8.70;1.00;;;;;;5111705;28;20241;-78
2022/02/13 04:21:03;;;;;;;12.77;7.73;;;8.70;1.00;;;;;;5111098;28;20251;-74
2022/02/13 04:23:32;;;;;;;12.20;7.30;;;8.80;1.00;;;;;;5112103;28;20201;-74
2022/02/13 04:25:59;;;;;;;8.50;6.93;;;8.70;1.00;;;;;;5111859;28;20208;-74
2022/02/13 04:28:26;;;;;;;13.47;7.23;;;8.60;1.00;;;;;;5111231;28;20300;-73
2022/02/13 04:30:53;;;;;;;9.93;6.87;;;8.70;1.00;;;;;;5110677;28;20291;-73
2022/02/13 04:33:20;;;;;;;10.27;7.00;;;8.70;1.00;;;;;;5084716;28;20233;-73
2022/02/13 04:35:48;;;;;;;9.33;6.93;;;8.80;1.00;;;;;;5101911;28;20201;-74
2022/02/13 04:38:15;;;;;;;10.27;6.40;;;8.70;1.00;;;;;;5106222;28;20238;-72
2022/02/13 04:40:44;;;;;;;9.53;7.17;;;8.70;1.00;;;;;;5111726;28;20264;-73
2022/02/13 04:43:11;;;;;;;16.50;8.10;;;8.80;1.00;;;;;;5111023;28;20205;-73
2022/02/13 04:45:38;;;;;;;8.47;6.03;;;8.70;1.00;;;;;;5111289;28;20625;-73
2022/02/13 04:48:05;;;;;;;13.30;6.70;;;8.60;1.00;;;;;;5110507;28;20295;-74
2022/02/13 04:50:32;;;;;;;15.10;8.30;;;8.60;1.00;;;;;;5110670;28;20261;-73
2022/02/13 04:52:59;;;;;;;12.37;7.40;;;8.50;1.00;;;;;;5110150;28;20250;-73
2022/02/13 04:55:26;;;;;;;10.50;7.50;;;8.40;1.00;;;;;;5110993;28;20208;-73
2022/02/13 04:57:55;;;;;;;9.17;6.30;;;8.50;1.00;;;;;;5111470;28;20258;-74
2022/02/13 05:00:22;;;;;;;13.27;7.83;;;8.50;1.00;;;;;;5110912;28;20825;-73
2022/02/13 05:02:49;;;;;;;7.83;5.80;;;8.50;1.00;;;;;;5110684;28;20612;-74
2022/02/13 05:05:16;;;;;;;12.30;8.00;;;8.50;1.00;;;;;;5110455;28;20209;-73
2022/02/13 05:07:43;;;;;;;10.33;6.53;;;8.50;1.00;;;;;;5111353;28;20201;-73
2022/02/13 05:10:11;;;;;;;13.53;7.20;;;8.40;1.00;;;;;;5096930;28;20250;-73
2022/02/13 05:12:38;;;;;;;13.87;7.17;;;8.40;1.00;;;;;;5111200;28;20228;-73
2022/02/13 05:15:08;;;;;;;11.73;6.60;;;8.40;1.00;;;;;;5110677;28;20201;-74
2022/02/13 05:17:35;;;;;;;14.10;8.23;;;8.50;1.00;;;;;;5110658;28;20257;-73
2022/02/13 05:20:03;;;;;;;9.57;6.03;;;8.40;1.00;;;;;;5110665;28;20207;-72
2022/02/13 05:22:30;;;;;;;10.17;5.80;;;8.50;1.00;;;;;;5111175;28;20200;-73
2022/02/13 05:24:57;;;;;;;13.37;7.40;;;8.50;1.00;;;;;;5111281;28;20205;-76
2022/02/13 05:27:24;;;;;;;7.60;5.20;;;8.50;1.00;;;;;;5109351;28;20212;-72
2022/02/13 05:29:51;;;;;;;10.23;5.33;;;8.50;1.00;;;;;;5110559;28;20201;-72
2022/02/13 05:32:20;;;;;;;11.60;6.00;;;8.50;1.00;;;;;;5100499;28;20325;-73
2022/02/13 05:34:47;;;;;;;9.37;4.83;;;8.40;1.00;;;;;;5107642;28;20567;-72
2022/02/13 05:37:14;;;;;;;7.70;6.00;;;8.50;1.00;;;;;;5110395;28;20205;-74
2022/02/13 05:39:42;;;;;;;7.83;5.63;;;8.50;1.00;;;;;;5110728;28;20633;-72
2022/02/13 05:42:10;;;;;;;7.07;6.20;;;8.40;1.00;;;;;;5110338;28;20243;-72
2022/02/13 05:44:38;;;;;;;8.43;5.33;;;8.40;1.00;;;;;;5102881;28;20243;-72
2022/02/13 05:47:05;;;;;;;10.53;6.80;;;8.40;1.00;;;;;;5109869;28;20674;-72
2022/02/13 05:49:35;;;;;;;18.73;6.87;;;8.40;1.00;;;;;;5110708;28;20235;-72
2022/02/13 05:52:02;;;;;;;11.80;6.23;;;8.30;1.00;;;;;;5110141;28;20220;-72
2022/02/13 05:54:30;;;;;;;9.03;5.60;;;8.40;1.00;;;;;;5110672;28;20232;-74
2022/02/13 05:56:57;;;;;;;8.13;5.83;;;8.40;1.00;;;;;;5110039;28;20201;-72
2022/02/13 05:59:24;;;;;;;9.87;5.93;;;8.50;1.00;;;;;;5110659;28;20205;-72
2022/02/13 06:01:53;;;;;;;10.70;5.37;;;8.50;1.00;;;;;;5109818;28;20253;-72
2022/02/13 06:04:21;;;;;;;8.77;4.90;;;8.60;1.00;;;;;;5110990;28;20253;-73
2022/02/13 06:06:50;;;;;;;8.80;4.97;;;8.70;1.00;;;;;;5113985;28;20227;-73
2022/02/13 06:09:18;;;;;;;8.77;5.50;;;8.50;1.00;;;;;;5114004;28;20262;-72
2022/02/13 06:11:45;;;;;;;7.30;4.60;;;8.50;1.00;;;;;;5113903;28;20270;-72
2022/02/13 06:14:13;;;;;;;13.00;5.17;;;8.60;1.00;;;;;;5114463;28;20261;-74
2022/02/13 06:16:40;;;;;;;7.20;5.63;;;8.70;1.00;;;;;;5113542;28;20213;-74
2022/02/13 06:19:08;;;;;;;8.47;5.47;;;8.70;1.00;;;;;;5114238;28;20208;-74
2022/02/13 06:21:35;;;;;;;10.07;6.03;;;8.70;1.00;;;;;;5112514;28;20204;-75
2022/02/13 06:24:04;;;;;;;9.57;6.40;;;8.70;1.00;;;;;;5113203;27;20728;-73
2022/02/13 06:26:34;;;;;;;13.67;5.47;;;8.60;1.00;;;;;;5110737;28;20759;-74
2022/02/13 06:29:02;;;;;;;8.50;5.97;;;8.70;1.00;;;;;;5113971;28;20618;-76
2022/02/13 06:31:29;;;;;;;13.57;7.63;;;8.70;1.00;;;;;;5112106;28;20668;-76
2022/02/13 06:33:56;;;;;;;12.80;5.77;;;8.60;1.00;;;;;;5102124;28;20240;-73
2022/02/13 06:36:23;;;;;;;15.20;5.30;;;8.60;1.00;;;;;;5113730;28;20295;-77
2022/02/13 06:38:50;;;;;;;10.00;4.83;;;8.60;1.00;;;;;;5113194;28;20815;-76
2022/02/13 06:41:18;;;;;;;7.37;5.27;;;8.60;1.00;;;;;;5113410;28;20601;-74
2022/02/13 06:43:45;;;;;;;6.87;5.93;;;8.50;1.00;;;;;;5113568;28;20208;-74
2022/02/13 06:46:12;;;;;;;13.40;6.93;;;8.60;1.00;;;;;;5113848;28;20261;-73
2022/02/13 06:48:40;;;;;;;8.83;5.33;;;8.60;1.00;;;;;;5093229;28;20586;-73
2022/02/13 06:51:08;;;;;;;13.60;7.47;;;8.70;1.00;;;;;;5092568;28;20202;-72
2022/02/13 06:53:35;;;;;;;9.53;6.10;;;8.60;1.00;;;;;;5092360;28;20233;-72
2022/02/13 06:56:02;;;;;;;8.67;6.20;;;8.60;1.00;;;;;;5092546;28;20197;-73
2022/02/13 06:58:30;;;;;;;5.83;5.07;;;8.60;1.00;;;;;;5091593;28;20319;-71
2022/02/13 07:00:57;;;;;;;10.93;6.93;;;8.50;1.00;;;;;;5093398;28;20267;-72
2022/02/13 07:03:24;;;;;;;7.33;5.03;;;8.60;1.00;;;;;;5093522;28;20254;-71
2022/02/13 07:05:51;;;;;;;7.47;3.93;;;8.80;1.00;;;;;;5093016;28;20262;-72
2022/02/13 07:08:18;;;;;;;10.03;5.43;;;8.80;1.00;;;;;;5093140;28;20258;-72
2022/02/13 07:10:45;;;;;;;12.03;5.67;;;8.80;1.00;;;;;;5093071;28;20265;-71
2022/02/13 07:13:12;;;;;;;9.43;4.93;;;8.80;1.00;;;;;;5093055;28;20229;-72
2022/02/13 07:15:40;;;;;;;11.00;5.67;;;8.70;1.00;;;;;;5092485;28;20224;-71
2022/02/13 07:18:07;;;;;;;6.80;4.70;;;8.80;1.00;;;;;;5092476;28;20669;-71
2022/02/13 07:20:34;;;;;;;10.47;5.17;;;8.80;1.00;;;;;;5092891;28;20205;-73
2022/02/13 07:23:02;;;;;;;11.87;4.83;;;9.00;1.00;;;;;;5089413;28;20201;-73
2022/02/13 07:25:29;;;;;;;10.13;5.20;;;9.00;1.00;;;;;;5105680;28;20217;-73
2022/02/13 07:27:56;;;;;;;22.37;5.87;;;9.00;1.00;;;;;;5108630;28;20201;-73
2022/02/13 07:30:23;;;;;;;8.17;4.83;;;9.10;1.00;;;;;;5112788;28;20213;-74
2022/02/13 07:32:52;;;;;;;9.83;3.97;;;9.10;1.00;;;;;;5112301;28;20289;-72
2022/02/13 07:35:19;;;;;;;8.80;4.90;;;9.20;1.00;;;;;;5108427;28;20274;-72
2022/02/13 07:37:45;;;;;;;8.50;4.73;;;9.20;1.00;;;;;;5111948;28;20669;-72
2022/02/13 07:40:14;;;;;;;5.53;3.53;;;9.30;1.00;;;;;;5112442;28;20668;-72
2022/02/13 07:42:41;;;;;;;5.83;4.50;;;9.40;1.00;;;;;;5112213;28;20209;-71
2022/02/13 07:45:08;;;;;;;11.37;4.83;;;9.30;1.00;;;;;;5112641;28;20588;-71
2022/02/13 07:47:35;;;;;;;10.23;6.67;;;9.40;1.00;;;;;;5112141;28;20223;-74
2022/02/13 07:50:04;;;;;;;9.23;5.83;;;9.50;1.00;;;;;;5112201;28;20209;-71
2022/02/13 07:52:31;;;;;;;12.50;4.67;;;9.40;1.00;;;;;;5111651;28;20229;-71
2022/02/13 07:54:58;;;;;;;11.90;5.80;;;9.40;1.00;;;;;;5104814;28;20209;-72
2022/02/13 07:57:25;;;;;;;6.10;4.30;;;9.50;1.00;;;;;;5097005;28;20257;-73
2022/02/13 07:59:52;;;;;;;9.07;5.30;;;9.70;1.00;;;;;;5097839;28;20208;-71
2022/02/13 08:02:19;;;;;;;7.83;5.50;;;9.80;1.00;;;;;;5103791;28;20263;-71
2022/02/13 08:04:46;;;;;;;16.10;5.90;;;9.80;1.00;;;;;;5112102;28;20205;-72
2022/02/13 08:07:14;;;;;;;6.27;5.27;;;9.90;1.00;;;;;;5112008;28;20266;-70
2022/02/13 08:09:42;;;;;;;16.67;6.13;;;10.00;1.00;;;;;;5111522;28;20205;-71
2022/02/13 08:12:10;;;;;;;15.67;5.53;;;10.30;1.00;;;;;;5100449;28;20244;-71
2022/02/13 08:14:37;;;;;;;7.27;4.83;;;10.40;1.00;;;;;;5111573;28;20777;-72
2022/02/13 08:17:05;;;;;;;8.87;4.80;;;10.40;1.00;;;;;;5096903;28;20235;-70
2022/02/13 08:19:35;;;;;;;6.37;5.13;;;10.50;1.00;;;;;;5098467;28;20204;-74
2022/02/13 08:22:03;;;;;;;4.87;4.37;;;10.60;1.00;;;;;;5096448;28;20204;-74
2022/02/13 08:24:33;;;;;;;10.43;5.00;;;10.60;1.00;;;;;;5095472;28;20267;-71
2022/02/13 08:27:00;;;;;;;7.50;4.87;;;10.70;1.00;;;;;;5107817;28;20718;-71
2022/02/13 08:29:27;;;;;;;8.33;4.90;;;10.80;1.00;;;;;;5091813;28;20437;-72
2022/02/13 08:31:54;;;;;;;8.73;3.93;;;11.00;1.00;;;;;;5091418;28;20201;-73
2022/02/13 08:34:22;;;;;;;13.77;5.40;;;11.00;1.00;;;;;;5091149;28;20229;-73
2022/02/13 08:36:49;;;;;;;7.33;4.57;;;11.40;1.00;;;;;;5104559;28;20215;-73
2022/02/13 08:39:16;;;;;;;7.53;4.83;;;11.70;1.00;;;;;;5107096;28;20741;-72
2022/02/13 08:41:45;;;;;;;6.00;4.03;;;11.70;1.00;;;;;;5103209;28;20597;-76
2022/02/13 08:44:12;;;;;;;10.90;4.83;;;12.00;1.00;;;;;;5096445;28;20255;-73
2022/02/13 08:46:38;;;;;;;6.40;4.73;;;11.60;1.00;;;;;;5111049;28;20254;-75
2022/02/13 08:49:05;;;;;;;11.40;4.77;;;11.50;1.00;;;;;;5092901;28;20209;-74
2022/02/13 08:51:32;;;;;;;8.77;4.53;;;11.70;1.00;;;;;;5098347;28;20262;-74
2022/02/13 08:53:59;;;;;;;6.10;4.10;;;11.60;1.00;;;;;;5110749;28;20715;-72
2022/02/13 08:56:27;;;;;;;8.23;5.23;;;12.30;1.00;;;;;;5111165;28;20617;-72
2022/02/13 08:58:57;;;;;;;8.90;4.33;;;12.20;1.00;;;;;;5099727;27;20212;-70
2022/02/13 09:01:24;;;;;;;5.97;3.70;;;11.90;1.00;;;;;;5102301;28;20205;-71
2022/02/13 09:03:51;;;;;;;5.90;3.90;;;12.20;1.00;;;;;;5095543;28;20250;-71
2022/02/13 09:06:18;;;;;;;3.50;2.37;;;12.00;1.00;;;;;;5111294;28;20254;-71
2022/02/13 09:08:46;;;;;;;10.83;5.10;;;11.60;1.00;;;;;;5110606;28;20277;-71
2022/02/13 09:11:13;;;;;;;7.03;4.13;;;11.80;1.00;;;;;;5103375;28;20201;-70
2022/02/13 09:13:40;;;;;;;7.87;3.60;;;11.80;1.00;;;;;;5101244;28;20225;-71
2022/02/13 09:16:08;;;;;;;8.17;3.27;;;11.60;1.00;;;;;;5093366;27;20734;-72
2022/02/13 09:18:35;;;;;;;7.97;4.43;;;12.10;1.00;;;;;;5103314;28;20266;-71
2022/02/13 09:21:03;;;;;;;7.73;4.27;;;11.90;1.00;;;;;;5101440;28;20216;-71
2022/02/13 09:23:30;;;;;;;7.07;3.53;;;11.70;1.00;;;;;;5094602;28;20216;-72
2022/02/13 09:25:57;;;;;;;6.03;4.60;;;12.00;1.00;;;;;;5102602;28;20288;-70
2022/02/13 09:28:24;;;;;;;5.38;3.83;;;12.90;1.00;;;;;;5107644;28;20261;-72
2022/02/13 09:30:51;;;;;;;7.55;4.57;;;12.70;1.00;;;;;;5102671;28;20213;-71
2022/02/13 09:33:19;;;;;;;12.05;4.55;;;13.00;1.00;;;;;;5107434;28;20228;-72
2022/02/13 09:35:46;;;;;;;7.80;4.38;;;12.80;1.00;;;;;;5103624;28;20207;-71
2022/02/13 09:38:15;;;;;;;8.13;3.33;;;12.90;1.00;;;;;;5103901;28;20202;-72
2022/02/13 09:40:43;;;;;;;5.32;3.85;;;13.50;1.00;;;;;;5087163;28;20254;-71
2022/02/13 09:43:11;;;;;;;5.05;3.08;;;13.50;1.00;;;;;;5092666;28;20286;-71
2022/02/13 09:45:42;;;;;;;7.00;3.35;;;13.00;1.00;;;;;;5076797;28;20784;-73
2022/02/13 09:48:12;;;;;;;7.22;3.38;;;13.00;1.00;;;;;;5074071;28;20202;-70
2022/02/13 09:50:40;;;;;;;9.35;4.15;;;13.60;1.00;;;;;;5087169;28;20672;-71
2022/02/13 09:53:07;;;;;;;9.38;4.35;;;13.50;1.00;;;;;;5094467;28;20228;-72
2022/02/13 09:55:35;;;;;;;6.30;3.45;;;14.10;1.00;;;;;;5094494;28;20205;-72
2022/02/13 09:58:03;;;;;;;6.00;3.08;;;14.50;1.00;;;;;;5094723;28;20201;-72
2022/02/13 10:00:49;;;;;;;7.30;4.18;;;14.40;1.00;;;;;;5094185;28;20259;-72
2022/02/13 10:03:21;;;;;;;8.20;3.45;;;15.10;1.00;;;;;;5094274;28;20647;-71
2022/02/13 10:05:50;;;;;;;6.53;2.58;;;16.40;1.00;;;;;;5093435;28;20202;-74
2022/02/13 10:08:32;;;;;;;5.45;3.33;;;14.50;1.00;;;;;;5094347;28;20258;-70
2022/02/13 10:11:13;;;;;;;6.80;3.33;;;16.10;1.00;;;;;;5094512;28;20574;-71
2022/02/13 10:13:49;;;;;;;8.77;3.38;;;16.00;1.00;;;;;;5093686;28;20593;-74
2022/02/13 10:16:19;;;;;;;4.60;3.55;;;16.00;1.00;;;;;;5094107;28;20209;-71
2022/02/13 10:18:47;;;;;;;6.40;4.63;;;15.70;1.00;;;;;;5093973;28;20205;-71
2022/02/13 10:21:34;;;;;;;8.18;3.67;;;16.60;1.00;;;;;;5094167;28;20734;-71
2022/02/13 10:24:22;;;;;;;5.65;3.38;;;15.60;1.00;;;;;;5094171;28;20237;-72
2022/02/13 10:26:51;;;;;;;11.77;4.38;;;15.50;1.00;;;;;;5093657;28;20656;-71
2022/02/13 10:29:20;;;;;;;7.03;4.22;;;15.50;1.00;;;;;;5094101;28;20624;-71
2022/02/13 10:31:46;;;;;;;6.82;3.00;;;16.40;1.00;;;;;;5093466;28;20617;-71
2022/02/13 10:34:15;;;;;;;2.67;1.88;;;15.70;1.00;;;;;;5094116;28;20245;-71
2022/02/13 10:36:45;;;;;;;6.18;3.30;;;15.40;1.00;;;;;;5093547;28;20769;-72
2022/02/13 10:39:20;;;;;;;7.70;3.58;;;16.40;1.00;;;;;;5093693;28;20258;-71
2022/02/13 10:41:48;;;;;;;5.20;3.22;;;14.80;1.00;;;;;;5093529;28;20250;-70
2022/02/13 10:44:16;;;;;;;8.73;3.55;;;13.60;1.00;;;;;;5093680;28;20201;-71
2022/02/13 10:46:44;;;;;;;9.88;4.50;;;13.50;1.00;;;;;;5093104;28;20280;-71
2022/02/13 10:49:13;;;;;;;6.82;2.90;;;13.40;1.00;;;;;;5093563;28;20252;-71
2022/02/13 10:51:40;;;;;;;3.55;2.63;;;13.60;1.00;;;;;;5091897;28;20209;-72
2022/02/13 10:54:08;;;;;;;5.25;3.58;;;13.50;1.00;;;;;;5091957;28;20229;-72
2022/02/13 10:56:36;;;;;;;4.72;3.00;;;13.60;1.00;;;;;;5093027;28;20742;-71
2022/02/13 10:59:04;;;;;;;5.13;3.15;;;13.60;1.00;;;;;;5093226;28;20282;-74
2022/02/13 11:01:32;;;;;;;3.08;2.72;;;13.50;1.00;;;;;;5093196;28;20668;-71
2022/02/13 11:04:03;;;;;;;8.18;3.53;;;13.70;1.00;;;;;;5093427;28;20265;-71
2022/02/13 11:06:32;;;;;;;6.57;3.95;;;13.80;1.00;;;;;;5093107;28;20625;-71
2022/02/13 11:09:04;;;;;;;5.65;3.45;;;14.00;1.00;;;;;;5093527;28;20657;-71
2022/02/13 11:11:33;;;;;;;5.63;4.25;;;14.00;1.00;;;;;;5092833;28;20251;-71
2022/02/13 11:14:00;;;;;;;6.88;4.00;;;14.00;1.00;;;;;;5093284;28;20232;-77
2022/02/13 11:16:33;;;;;;;5.35;2.47;;;13.90;1.00;;;;;;5093684;28;20198;-73
2022/02/13 11:19:03;;;;;;;8.48;3.65;;;13.90;1.00;;;;;;5093161;28;20201;-77
2022/02/13 11:21:31;;;;;;;6.45;3.22;;;14.00;1.00;;;;;;5092945;28;20201;-72
2022/02/13 11:24:00;;;;;;;7.28;2.75;;;14.20;1.00;;;;;;5093247;28;20262;-71
2022/02/13 11:26:43;;;;;;;8.02;4.97;;;14.00;1.00;;;;;;5093600;28;20205;-73
2022/02/13 11:29:11;;;;;;;4.28;3.20;;;13.90;1.00;;;;;;5092146;28;20206;-81
2022/02/13 11:31:42;;;;;;;5.82;3.63;;;14.20;1.00;;;;;;5100053;28;20204;-83
2022/02/13 11:34:12;;;;;;;9.05;3.63;;;14.10;1.00;;;;;;5097817;28;20240;-85
2022/02/13 11:36:42;;;;;;;5.68;2.88;;;14.50;1.00;;;;;;5099446;28;20213;-73
2022/02/13 11:39:09;;;;;;;10.95;3.88;;;14.60;1.00;;;;;;5092784;28;20213;-73
2022/02/13 11:42:02;;;;;;;5.70;2.85;;;14.50;1.00;;;;;;5093022;28;20198;-79
2022/02/13 11:44:37;;;;;;;5.35;2.50;;;14.40;1.00;;;;;;5089609;28;20201;-72
2022/02/13 11:47:06;;;;;;;5.28;2.58;;;14.50;1.00;;;;;;5092913;28;20205;-78
2022/02/13 11:49:33;;;;;;;5.80;3.00;;;14.40;1.00;;;;;;5092498;28;20206;-75
2022/02/13 11:52:01;;;;;;;14.65;3.22;;;14.50;1.00;;;;;;5094067;28;20580;-79
2022/02/13 11:54:56;;;;;;;3.83;2.40;;;14.60;1.00;;;;;;5105786;28;20235;-76
2022/02/13 11:57:29;;;;;;;3.88;2.65;;;14.50;1.00;;;;;;5092478;28;20205;-74
2022/02/13 12:00:10;;;;;;;4.78;2.88;;;14.70;1.00;;;;;;5092628;28;20202;-79
2022/02/13 12:02:45;;;;;;;8.05;3.30;;;14.70;1.00;;;;;;5091704;28;20677;-83
2022/02/13 12:05:16;;;;;;;11.02;3.50;;;14.90;1.00;;;;;;5092328;28;20205;-78
2022/02/13 12:08:00;;;;;;;6.38;2.70;;;15.00;1.00;;;;;;5091953;28;20210;-77
2022/02/13 12:10:30;;;;;;;5.32;2.72;;;15.20;1.00;;;;;;5092689;28;20282;-78
2022/02/13 12:13:12;;;;;;;9.85;3.47;;;15.20;1.00;;;;;;5092695;28;20270;-78
2022/02/13 12:15:40;;;;;;;3.45;2.60;;;15.00;1.00;;;;;;5091788;28;20330;-74
2022/02/13 12:18:09;;;;;;;4.57;3.17;;;14.90;1.00;;;;;;5092171;28;20227;-73
2022/02/13 12:20:37;;;;;;;4.60;2.50;;;15.10;1.00;;;;;;5091460;28;20259;-80
2022/02/13 12:23:09;;;;;;;4.47;2.97;;;15.00;1.00;;;;;;5091533;28;20206;-80
2022/02/13 12:25:38;;;;;;;6.95;3.53;;;15.00;1.00;;;;;;5091836;28;20271;-83
2022/02/13 12:28:06;;;;;;;6.55;3.05;;;15.20;1.00;;;;;;5089726;28;20202;-77
2022/02/13 12:30:35;;;;;;;8.18;3.25;;;15.10;1.00;;;;;;5082121;28;20247;-83
2022/02/13 12:33:04;;;;;;;8.55;3.20;;;15.20;1.00;;;;;;5092433;28;20205;-76
2022/02/13 12:35:33;;;;;;;3.92;2.70;;;15.10;1.00;;;;;;5091998;28;20792;-83
2022/02/13 12:38:02;;;;;;;7.20;2.65;;;15.10;1.00;;;;;;5103166;28;20216;-83
2022/02/13 12:40:31;;;;;;;7.75;3.00;;;15.20;1.00;;;;;;5102942;28;20216;-76
2022/02/13 12:43:03;;;;;;;3.78;2.80;;;15.10;1.00;;;;;;5083009;28;20199;-83
2022/02/13 12:45:32;;;;;;;6.47;2.55;;;15.00;1.00;;;;;;5091385;28;20213;-80
2022/02/13 12:48:03;;;;;;;4.65;3.05;;;15.30;1.00;;;;;;5086821;28;20712;-73
2022/02/13 12:50:31;;;;;;;5.47;3.08;;;15.30;1.00;;;;;;5093286;28;20292;-74
2022/02/13 12:53:00;;;;;;;4.35;2.47;;;15.30;1.00;;;;;;5100833;28;20676;-78
2022/02/13 12:55:27;;;;;;;5.60;3.03;;;15.20;1.00;;;;;;5097565;28;20241;-78
2022/02/13 12:57:56;;;;;;;9.30;5.38;;;15.30;1.00;;;;;;5105321;28;20216;-77
2022/02/13 13:00:25;;;;;;;4.78;3.30;;;15.40;1.00;;;;;;5102830;28;20266;-75
2022/02/13 13:02:54;;;;;;;5.20;2.55;;;15.20;1.00;;;;;;5102456;28;20201;-82